New Springfield, Ohio
Current Conditions -  °F | °C
As of 9:51 AM on Monday 24 Nov 2014 (Local Time) from KYNG Reporting Station
Broken Clouds Broken Clouds  
Wind Chill: 62°   Ceiling: 2800
Heat Index: 62°   Visibility: 10mi
Dew Point: 52°   Wind: 17mph
Humidity: 70%   Direction: 190°S
Pressure: 29.33"   Gusts: 28mph
Location:  40.92°N, 80.61°W
Report Text: KYNG 241451Z 19015G24KT 10SM BKN028 17/11 A2933 RMK AO2 PK WND 18032/1357 SLP932 60000 T01670111 58008
Loading
Personal Weather Stations






























Interactive Weather Map New forecast layout! Learn more

10-Day Weather Forecast

Advertisements
Track Severe Weather on mobile